sensor_id;sensor_type;location;lat;lon;timestamp;pressure;altitude;pressure_sealevel;temperature;humidity
61026;BME280;46911;32.650;-16.902;2023-04-30T00:01:43;101897.03;;;19.70;93.77
61026;BME280;46911;32.650;-16.902;2023-04-30T00:03:44;101887.47;;;19.66;93.83
61026;BME280;46911;32.650;-16.902;2023-04-30T00:05:44;101875.00;;;19.53;94.38
61026;BME280;46911;32.650;-16.902;2023-04-30T00:07:49;101891.53;;;19.60;93.92
61026;BME280;46911;32.650;-16.902;2023-04-30T00:09:53;101900.09;;;19.55;94.64
61026;BME280;46911;32.650;-16.902;2023-04-30T00:12:00;101902.78;;;19.55;94.83
61026;BME280;46911;32.650;-16.902;2023-04-30T00:14:06;101891.59;;;19.39;94.55
61026;BME280;46911;32.650;-16.902;2023-04-30T00:16:07;101892.25;;;19.31;94.25
61026;BME280;46911;32.650;-16.902;2023-04-30T00:18:10;101891.53;;;19.29;93.69
61026;BME280;46911;32.650;-16.902;2023-04-30T00:20:15;101905.66;;;19.33;93.27
61026;BME280;46911;32.650;-16.902;2023-04-30T00:22:19;101899.63;;;19.29;93.17
61026;BME280;46911;32.650;-16.902;2023-04-30T00:24:22;101899.06;;;19.26;92.60
61026;BME280;46911;32.650;-16.902;2023-04-30T00:26:25;101887.50;;;19.23;92.25
61026;BME280;46911;32.650;-16.902;2023-04-30T00:28:29;101885.13;;;19.30;90.58
61026;BME280;46911;32.650;-16.902;2023-04-30T00:30:30;101867.25;;;19.18;90.46
61026;BME280;46911;32.650;-16.902;2023-04-30T00:32:33;101868.38;;;19.15;90.05
61026;BME280;46911;32.650;-16.902;2023-04-30T00:34:34;101835.09;;;18.94;88.69
61026;BME280;46911;32.650;-16.902;2023-04-30T00:36:38;101885.91;;;19.21;86.95
61026;BME280;46911;32.650;-16.902;2023-04-30T00:38:40;101868.75;;;19.11;85.18
61026;BME280;46911;32.650;-16.902;2023-04-30T00:40:51;101833.50;;;18.91;84.39
61026;BME280;46911;32.650;-16.902;2023-04-30T00:42:52;101867.53;;;19.15;83.34
61026;BME280;46911;32.650;-16.902;2023-04-30T00:44:55;101857.50;;;19.05;82.88
61026;BME280;46911;32.650;-16.902;2023-04-30T00:46:57;101850.38;;;19.04;83.08
61026;BME280;46911;32.650;-16.902;2023-04-30T00:48:58;101865.94;;;19.12;83.18
61026;BME280;46911;32.650;-16.902;2023-04-30T00:51:04;101844.84;;;19.06;83.87
61026;BME280;46911;32.650;-16.902;2023-04-30T00:53:07;101849.41;;;19.05;84.15
61026;BME280;46911;32.650;-16.902;2023-04-30T00:55:10;101859.66;;;19.12;83.89
61026;BME280;46911;32.650;-16.902;2023-04-30T00:57:11;101855.97;;;19.13;83.27
61026;BME280;46911;32.650;-16.902;2023-04-30T00:59:17;101861.53;;;19.11;83.52
61026;BME280;46911;32.650;-16.902;2023-04-30T01:01:18;101834.69;;;18.98;83.76
61026;BME280;46911;32.650;-16.902;2023-04-30T01:03:23;101839.84;;;19.01;83.54
61026;BME280;46911;32.650;-16.902;2023-04-30T01:05:26;101842.72;;;19.10;82.64
61026;BME280;46911;32.650;-16.902;2023-04-30T01:07:27;101843.06;;;19.16;81.94
61026;BME280;46911;32.650;-16.902;2023-04-30T01:09:28;101845.03;;;19.14;80.79
61026;BME280;46911;32.650;-16.902;2023-04-30T01:14:52;101829.47;;;19.06;80.69
61026;BME280;46911;32.650;-16.902;2023-04-30T01:16:32;101827.16;;;19.02;80.95
61026;BME280;46911;32.650;-16.902;2023-04-30T01:21:06;101813.91;;;18.99;82.04
61026;BME280;46911;32.650;-16.902;2023-04-30T01:29:58;101818.50;;;18.87;82.34
61026;BME280;46911;32.650;-16.902;2023-04-30T01:32:04;101806.34;;;18.81;81.47
61026;BME280;46911;32.650;-16.902;2023-04-30T01:34:05;101811.75;;;18.81;80.39
61026;BME280;46911;32.650;-16.902;2023-04-30T01:36:15;101807.34;;;18.80;80.16
61026;BME280;46911;32.650;-16.902;2023-04-30T01:43:03;101795.88;;;18.67;79.71
61026;BME280;46911;32.650;-16.902;2023-04-30T01:51:39;101788.56;;;18.57;78.82
61026;BME280;46911;32.650;-16.902;2023-04-30T01:53:41;101774.38;;;18.44;78.51
61026;BME280;46911;32.650;-16.902;2023-04-30T01:55:50;101769.81;;;18.45;78.46
61026;BME280;46911;32.650;-16.902;2023-04-30T01:57:56;101787.44;;;18.60;78.00
61026;BME280;46911;32.650;-16.902;2023-04-30T02:00:02;101763.72;;;18.43;77.96
61026;BME280;46911;32.650;-16.902;2023-04-30T02:02:16;101794.34;;;18.53;77.86
61026;BME280;46911;32.650;-16.902;2023-04-30T02:04:20;101776.47;;;18.40;78.03
61026;BME280;46911;32.650;-16.902;2023-04-30T02:06:23;101796.56;;;18.48;77.73
61026;BME280;46911;32.650;-16.902;2023-04-30T02:08:30;101802.25;;;18.45;77.51
61026;BME280;46911;32.650;-16.902;2023-04-30T02:10:33;101797.25;;;18.40;77.68
61026;BME280;46911;32.650;-16.902;2023-04-30T02:12:34;101779.81;;;18.33;77.66
61026;BME280;46911;32.650;-16.902;2023-04-30T02:14:35;101761.69;;;18.23;77.59
61026;BME280;46911;32.650;-16.902;2023-04-30T02:16:40;101791.38;;;18.35;77.71
61026;BME280;46911;32.650;-16.902;2023-04-30T02:18:41;101788.81;;;18.33;77.58
61026;BME280;46911;32.650;-16.902;2023-04-30T02:20:45;101760.22;;;18.19;77.57
61026;BME280;46911;32.650;-16.902;2023-04-30T02:22:46;101779.09;;;18.31;77.29
61026;BME280;46911;32.650;-16.902;2023-04-30T02:24:47;101778.38;;;18.29;77.32
61026;BME280;46911;32.650;-16.902;2023-04-30T02:26:50;101772.25;;;18.27;77.18
61026;BME280;46911;32.650;-16.902;2023-04-30T02:28:52;101742.44;;;18.17;77.52
61026;BME280;46911;32.650;-16.902;2023-04-30T02:30:52;101732.41;;;18.07;77.33
61026;BME280;46911;32.650;-16.902;2023-04-30T02:32:56;101764.25;;;18.25;77.47
61026;BME280;46911;32.650;-16.902;2023-04-30T02:34:59;101768.53;;;18.28;77.52
61026;BME280;46911;32.650;-16.902;2023-04-30T02:37:05;101741.72;;;18.15;76.95
61026;BME280;46911;32.650;-16.902;2023-04-30T02:39:09;101749.28;;;18.21;76.71
61026;BME280;46911;32.650;-16.902;2023-04-30T02:41:13;101762.78;;;18.32;76.68
61026;BME280;46911;32.650;-16.902;2023-04-30T02:43:16;101751.75;;;18.24;76.70
61026;BME280;46911;32.650;-16.902;2023-04-30T02:45:20;101757.41;;;18.21;76.54
61026;BME280;46911;32.650;-16.902;2023-04-30T02:47:21;101740.72;;;18.16;76.39
61026;BME280;46911;32.650;-16.902;2023-04-30T02:49:24;101749.56;;;18.18;75.77
61026;BME280;46911;32.650;-16.902;2023-04-30T02:51:31;101747.38;;;18.12;75.42
61026;BME280;46911;32.650;-16.902;2023-04-30T02:53:32;101746.38;;;18.13;75.42
61026;BME280;46911;32.650;-16.902;2023-04-30T02:55:36;101769.91;;;18.22;75.86
61026;BME280;46911;32.650;-16.902;2023-04-30T02:57:38;101772.88;;;18.19;76.33
61026;BME280;46911;32.650;-16.902;2023-04-30T02:59:38;101763.00;;;18.08;76.75
61026;BME280;46911;32.650;-16.902;2023-04-30T03:01:40;101762.09;;;18.07;76.84
61026;BME280;46911;32.650;-16.902;2023-04-30T03:03:45;101773.66;;;18.10;76.95
61026;BME280;46911;32.650;-16.902;2023-04-30T03:05:46;101787.50;;;18.16;76.97
61026;BME280;46911;32.650;-16.902;2023-04-30T03:07:47;101792.41;;;18.11;77.22
61026;BME280;46911;32.650;-16.902;2023-04-30T03:09:50;101762.66;;;18.01;76.91
61026;BME280;46911;32.650;-16.902;2023-04-30T03:11:51;101782.72;;;18.09;77.15
61026;BME280;46911;32.650;-16.902;2023-04-30T03:13:52;101765.72;;;17.97;77.16
61026;BME280;46911;32.650;-16.902;2023-04-30T03:16:00;101781.41;;;18.03;77.10
61026;BME280;46911;32.650;-16.902;2023-04-30T03:18:02;101777.38;;;17.97;77.15
61026;BME280;46911;32.650;-16.902;2023-04-30T03:20:04;101761.66;;;17.91;76.69
61026;BME280;46911;32.650;-16.902;2023-04-30T03:22:09;101785.69;;;18.05;76.63
61026;BME280;46911;32.650;-16.902;2023-04-30T03:24:15;101766.19;;;17.90;76.88
61026;BME280;46911;32.650;-16.902;2023-04-30T03:26:19;101763.72;;;17.87;77.18
61026;BME280;46911;32.650;-16.902;2023-04-30T03:28:20;101776.13;;;17.90;77.25
61026;BME280;46911;32.650;-16.902;2023-04-30T03:30:21;101767.53;;;17.85;77.56
61026;BME280;46911;32.650;-16.902;2023-04-30T03:32:30;101774.41;;;17.89;78.08
61026;BME280;46911;32.650;-16.902;2023-04-30T03:34:33;101788.06;;;17.99;78.15
61026;BME280;46911;32.650;-16.902;2023-04-30T03:36:37;101769.00;;;17.89;77.96
61026;BME280;46911;32.650;-16.902;2023-04-30T03:38:40;101770.00;;;17.88;77.44
61026;BME280;46911;32.650;-16.902;2023-04-30T03:40:45;101775.78;;;17.95;77.36
61026;BME280;46911;32.650;-16.902;2023-04-30T03:42:48;101762.41;;;17.82;77.12
61026;BME280;46911;32.650;-16.902;2023-04-30T03:44:49;101770.09;;;17.86;77.28
61026;BME280;46911;32.650;-16.902;2023-04-30T03:46:53;101762.88;;;17.87;77.12
61026;BME280;46911;32.650;-16.902;2023-04-30T03:48:59;101757.22;;;17.90;77.16
61026;BME280;46911;32.650;-16.902;2023-04-30T03:51:03;101740.34;;;17.77;76.69
61026;BME280;46911;32.650;-16.902;2023-04-30T03:53:07;101751.75;;;17.80;76.75
61026;BME280;46911;32.650;-16.902;2023-04-30T03:55:08;101735.06;;;17.75;76.62
61026;BME280;46911;32.650;-16.902;2023-04-30T03:57:12;101762.16;;;17.85;76.32
61026;BME280;46911;32.650;-16.902;2023-04-30T03:59:13;101746.84;;;17.74;75.81
61026;BME280;46911;32.650;-16.902;2023-04-30T04:01:14;101741.44;;;17.74;75.49
61026;BME280;46911;32.650;-16.902;2023-04-30T04:03:18;101710.44;;;17.57;74.74
61026;BME280;46911;32.650;-16.902;2023-04-30T04:05:23;101755.06;;;17.84;74.62
61026;BME280;46911;32.650;-16.902;2023-04-30T04:07:27;101749.16;;;17.79;74.92
61026;BME280;46911;32.650;-16.902;2023-04-30T04:09:30;101749.31;;;17.77;74.47
61026;BME280;46911;32.650;-16.902;2023-04-30T04:11:31;101732.50;;;17.62;74.47
61026;BME280;46911;32.650;-16.902;2023-04-30T04:13:34;101731.91;;;17.59;74.21
61026;BME280;46911;32.650;-16.902;2023-04-30T04:15:35;101732.78;;;17.59;74.01
61026;BME280;46911;32.650;-16.902;2023-04-30T04:17:40;101691.84;;;17.43;74.08
61026;BME280;46911;32.650;-16.902;2023-04-30T04:19:44;101708.22;;;17.62;75.36
61026;BME280;46911;32.650;-16.902;2023-04-30T04:21:49;101697.56;;;17.61;76.99
61026;BME280;46911;32.650;-16.902;2023-04-30T04:23:50;101702.47;;;17.67;78.07
61026;BME280;46911;32.650;-16.902;2023-04-30T04:25:58;101719.34;;;17.80;78.72
61026;BME280;46911;32.650;-16.902;2023-04-30T04:28:01;101701.34;;;17.69;78.72
61026;BME280;46911;32.650;-16.902;2023-04-30T04:30:08;101659.50;;;17.43;79.00
61026;BME280;46911;32.650;-16.902;2023-04-30T04:32:14;101716.78;;;17.79;78.14
61026;BME280;46911;32.650;-16.902;2023-04-30T04:34:18;101715.91;;;17.78;76.92
61026;BME280;46911;32.650;-16.902;2023-04-30T04:36:22;101701.59;;;17.66;75.91
61026;BME280;46911;32.650;-16.902;2023-04-30T04:38:25;101721.72;;;17.73;75.11
61026;BME280;46911;32.650;-16.902;2023-04-30T04:40:28;101713.97;;;17.69;74.86
61026;BME280;46911;32.650;-16.902;2023-04-30T04:42:32;101723.06;;;17.68;74.97
61026;BME280;46911;32.650;-16.902;2023-04-30T04:44:33;101709.47;;;17.58;74.69
61026;BME280;46911;32.650;-16.902;2023-04-30T04:46:34;101711.06;;;17.61;74.68
61026;BME280;46911;32.650;-16.902;2023-04-30T04:48:38;101684.13;;;17.49;74.35
61026;BME280;46911;32.650;-16.902;2023-04-30T04:50:39;101678.59;;;17.51;74.27
61026;BME280;46911;32.650;-16.902;2023-04-30T04:52:40;101686.56;;;17.52;74.53
61026;BME280;46911;32.650;-16.902;2023-04-30T04:54:41;101704.28;;;17.66;74.16
61026;BME280;46911;32.650;-16.902;2023-04-30T04:56:42;101700.25;;;17.61;73.91
61026;BME280;46911;32.650;-16.902;2023-04-30T04:58:43;101713.88;;;17.70;74.26
61026;BME280;46911;32.650;-16.902;2023-04-30T05:00:45;101712.63;;;17.74;74.24
61026;BME280;46911;32.650;-16.902;2023-04-30T05:02:49;101707.25;;;17.74;74.63
61026;BME280;46911;32.650;-16.902;2023-04-30T05:04:50;101712.72;;;17.73;74.97
61026;BME280;46911;32.650;-16.902;2023-04-30T05:06:53;101709.44;;;17.69;75.36
61026;BME280;46911;32.650;-16.902;2023-04-30T05:08:54;101699.56;;;17.59;75.90
61026;BME280;46911;32.650;-16.902;2023-04-30T05:10:55;101694.38;;;17.55;76.46
61026;BME280;46911;32.650;-16.902;2023-04-30T05:12:56;101710.22;;;17.60;76.99
61026;BME280;46911;32.650;-16.902;2023-04-30T05:14:57;101708.97;;;17.64;77.82
61026;BME280;46911;32.650;-16.902;2023-04-30T05:16:58;101719.75;;;17.64;78.41
61026;BME280;46911;32.650;-16.902;2023-04-30T05:18:58;101716.09;;;17.65;79.12
61026;BME280;46911;32.650;-16.902;2023-04-30T05:21:02;101690.00;;;17.54;81.01
61026;BME280;46911;32.650;-16.902;2023-04-30T05:23:03;101690.00;;;17.54;82.52
61026;BME280;46911;32.650;-16.902;2023-04-30T05:25:05;101705.78;;;17.70;83.76
61026;BME280;46911;32.650;-16.902;2023-04-30T05:27:06;101694.25;;;17.57;85.09
61026;BME280;46911;32.650;-16.902;2023-04-30T05:29:07;101704.81;;;17.60;85.95
61026;BME280;46911;32.650;-16.902;2023-04-30T05:31:08;101708.84;;;17.66;87.33
61026;BME280;46911;32.650;-16.902;2023-04-30T05:33:09;101709.44;;;17.69;88.96
61026;BME280;46911;32.650;-16.902;2023-04-30T05:35:09;101717.69;;;17.68;89.71
61026;BME280;46911;32.650;-16.902;2023-04-30T05:37:13;101722.34;;;17.66;90.17
61026;BME280;46911;32.650;-16.902;2023-04-30T05:39:17;101704.59;;;17.52;91.19
61026;BME280;46911;32.650;-16.902;2023-04-30T05:41:23;101706.53;;;17.50;91.30
61026;BME280;46911;32.650;-16.902;2023-04-30T05:43:26;101725.16;;;17.53;91.57
61026;BME280;46911;32.650;-16.902;2023-04-30T05:45:29;101724.59;;;17.49;91.62
61026;BME280;46911;32.650;-16.902;2023-04-30T05:47:30;101717.59;;;17.35;91.63
61026;BME280;46911;32.650;-16.902;2023-04-30T05:49:36;101726.44;;;17.37;91.08
61026;BME280;46911;32.650;-16.902;2023-04-30T05:51:39;101751.41;;;17.39;91.06
61026;BME280;46911;32.650;-16.902;2023-04-30T05:53:40;101742.97;;;17.33;90.69
61026;BME280;46911;32.650;-16.902;2023-04-30T05:55:43;101737.59;;;17.21;90.34
61026;BME280;46911;32.650;-16.902;2023-04-30T05:57:44;101733.56;;;17.16;89.90
61026;BME280;46911;32.650;-16.902;2023-04-30T05:59:50;101747.13;;;17.14;89.34
61026;BME280;46911;32.650;-16.902;2023-04-30T06:01:53;101752.53;;;17.14;89.12
61026;BME280;46911;32.650;-16.902;2023-04-30T06:03:54;101758.03;;;17.13;89.42
61026;BME280;46911;32.650;-16.902;2023-04-30T06:05:55;101758.03;;;17.13;88.91
61026;BME280;46911;32.650;-16.902;2023-04-30T06:07:56;101750.94;;;17.00;88.84
61026;BME280;46911;32.650;-16.902;2023-04-30T06:09:57;101761.63;;;17.13;88.64
61026;BME280;46911;32.650;-16.902;2023-04-30T06:12:01;101768.31;;;17.07;88.72
61026;BME280;46911;32.650;-16.902;2023-04-30T06:14:05;101771.16;;;17.17;90.21
61026;BME280;46911;32.650;-16.902;2023-04-30T06:16:09;101769.69;;;17.24;91.20
61026;BME280;46911;32.650;-16.902;2023-04-30T06:18:12;101745.44;;;17.13;91.84
61026;BME280;46911;32.650;-16.902;2023-04-30T06:20:13;101741.50;;;17.17;92.48
61026;BME280;46911;32.650;-16.902;2023-04-30T06:22:17;101745.56;;;17.23;93.32
61026;BME280;46911;32.650;-16.902;2023-04-30T06:24:21;101718.09;;;17.06;93.91
61026;BME280;46911;32.650;-16.902;2023-04-30T06:26:22;101739.69;;;17.29;94.39
61026;BME280;46911;32.650;-16.902;2023-04-30T06:28:22;101749.81;;;17.37;94.97
61026;BME280;46911;32.650;-16.902;2023-04-30T06:30:23;101768.97;;;17.45;94.87
61026;BME280;46911;32.650;-16.902;2023-04-30T06:32:29;101770.44;;;17.38;95.01
61026;BME280;46911;32.650;-16.902;2023-04-30T06:34:30;101771.03;;;17.42;95.23
61026;BME280;46911;32.650;-16.902;2023-04-30T06:36:31;101752.91;;;17.32;95.35
61026;BME280;46911;32.650;-16.902;2023-04-30T06:38:35;101799.13;;;17.62;95.04
61026;BME280;46911;32.650;-16.902;2023-04-30T06:40:36;101807.06;;;17.63;94.98
61026;BME280;46911;32.650;-16.902;2023-04-30T06:42:37;101794.69;;;17.61;94.82
61026;BME280;46911;32.650;-16.902;2023-04-30T06:44:43;101818.25;;;17.81;94.38
61026;BME280;46911;32.650;-16.902;2023-04-30T06:46:47;101825.81;;;17.87;94.34
61026;BME280;46911;32.650;-16.902;2023-04-30T06:48:48;101816.47;;;17.91;93.94
61026;BME280;46911;32.650;-16.902;2023-04-30T06:50:51;101812.00;;;17.92;93.23
61026;BME280;46911;32.650;-16.902;2023-04-30T06:52:55;101804.97;;;18.01;92.66
61026;BME280;46911;32.650;-16.902;2023-04-30T06:54:58;101798.31;;;18.05;92.20
61026;BME280;46911;32.650;-16.902;2023-04-30T06:57:04;101806.47;;;18.26;91.64
61026;BME280;46911;32.650;-16.902;2023-04-30T06:59:09;101791.16;;;18.27;90.85
61026;BME280;46911;32.650;-16.902;2023-04-30T07:01:10;101800.31;;;18.35;90.12
61026;BME280;46911;32.650;-16.902;2023-04-30T07:03:13;101815.72;;;18.56;89.88
61026;BME280;46911;32.650;-16.902;2023-04-30T07:05:16;101811.34;;;18.65;89.08
61026;BME280;46911;32.650;-16.902;2023-04-30T07:07:22;101811.19;;;18.78;88.46
61026;BME280;46911;32.650;-16.902;2023-04-30T07:09:23;101813.84;;;18.89;88.03
61026;BME280;46911;32.650;-16.902;2023-04-30T07:11:26;101809.16;;;18.91;87.71
61026;BME280;46911;32.650;-16.902;2023-04-30T07:13:29;101816.06;;;19.05;87.55
61026;BME280;46911;32.650;-16.902;2023-04-30T07:15:33;101804.28;;;19.06;87.08
61026;BME280;46911;32.650;-16.902;2023-04-30T07:17:34;101807.56;;;19.10;86.24
61026;BME280;46911;32.650;-16.902;2023-04-30T07:19:37;101819.88;;;19.23;86.26
61026;BME280;46911;32.650;-16.902;2023-04-30T07:21:38;101829.06;;;19.32;86.21
61026;BME280;46911;32.650;-16.902;2023-04-30T07:23:40;101811.63;;;19.25;86.13
61026;BME280;46911;32.650;-16.902;2023-04-30T07:25:42;101826.66;;;19.39;85.73
61026;BME280;46911;32.650;-16.902;2023-04-30T07:27:43;101814.25;;;19.36;85.07
61026;BME280;46911;32.650;-16.902;2023-04-30T07:29:44;101813.38;;;19.36;85.48
61026;BME280;46911;32.650;-16.902;2023-04-30T07:31:47;101824.81;;;19.39;85.54
61026;BME280;46911;32.650;-16.902;2023-04-30T07:33:51;101826.06;;;19.35;85.54
61026;BME280;46911;32.650;-16.902;2023-04-30T07:35:52;101828.72;;;19.26;85.98
61026;BME280;46911;32.650;-16.902;2023-04-30T07:37:55;101831.03;;;19.30;85.78
61026;BME280;46911;32.650;-16.902;2023-04-30T07:39:58;101829.59;;;19.26;85.89
61026;BME280;46911;32.650;-16.902;2023-04-30T07:41:59;101833.41;;;19.23;86.15
61026;BME280;46911;32.650;-16.902;2023-04-30T07:44:05;101829.84;;;19.23;86.69
61026;BME280;46911;32.650;-16.902;2023-04-30T07:46:06;101824.16;;;19.26;86.61
61026;BME280;46911;32.650;-16.902;2023-04-30T07:48:12;101807.94;;;19.26;86.76
61026;BME280;46911;32.650;-16.902;2023-04-30T07:50:13;101795.84;;;19.30;86.34
61026;BME280;46911;32.650;-16.902;2023-04-30T07:52:19;101815.72;;;19.50;86.25
61026;BME280;46911;32.650;-16.902;2023-04-30T07:54:20;101815.06;;;19.58;85.96
61026;BME280;46911;32.650;-16.902;2023-04-30T07:56:21;101802.94;;;19.52;85.56
61026;BME280;46911;32.650;-16.902;2023-04-30T07:58:21;101806.66;;;19.61;84.91
61026;BME280;46911;32.650;-16.902;2023-04-30T08:00:30;101823.19;;;19.68;84.80
61026;BME280;46911;32.650;-16.902;2023-04-30T08:02:31;101818.22;;;19.63;84.48
61026;BME280;46911;32.650;-16.902;2023-04-30T08:04:39;101826.78;;;19.68;84.44
61026;BME280;46911;32.650;-16.902;2023-04-30T08:06:45;101828.88;;;19.86;83.72
61026;BME280;46911;32.650;-16.902;2023-04-30T08:08:48;101830.13;;;19.82;83.85
61026;BME280;46911;32.650;-16.902;2023-04-30T08:10:49;101835.28;;;19.85;83.65
61026;BME280;46911;32.650;-16.902;2023-04-30T08:12:50;101822.25;;;19.79;82.97
61026;BME280;46911;32.650;-16.902;2023-04-30T08:15:04;101848.97;;;19.93;83.28
61026;BME280;46911;32.650;-16.902;2023-04-30T08:17:08;101851.28;;;19.98;83.26
61026;BME280;46911;32.650;-16.902;2023-04-30T08:19:12;101827.72;;;19.88;83.09
61026;BME280;46911;32.650;-16.902;2023-04-30T08:21:13;101841.00;;;20.01;83.25
61026;BME280;46911;32.650;-16.902;2023-04-30T08:23:14;101829.63;;;20.07;82.57
61026;BME280;46911;32.650;-16.902;2023-04-30T08:25:16;101830.50;;;20.18;82.47
61026;BME280;46911;32.650;-16.902;2023-04-30T08:27:19;101822.22;;;20.29;81.34
61026;BME280;46911;32.650;-16.902;2023-04-30T08:29:20;101817.53;;;20.31;81.13
61026;BME280;46911;32.650;-16.902;2023-04-30T08:31:21;101803.13;;;20.31;81.00
61026;BME280;46911;32.650;-16.902;2023-04-30T08:33:22;101812.84;;;20.43;80.52
61026;BME280;46911;32.650;-16.902;2023-04-30T08:35:23;101797.16;;;20.37;79.85
61026;BME280;46911;32.650;-16.902;2023-04-30T08:37:26;101808.28;;;20.44;80.44
61026;BME280;46911;32.650;-16.902;2023-04-30T08:39:29;101819.66;;;20.37;80.83
61026;BME280;46911;32.650;-16.902;2023-04-30T08:41:31;101772.31;;;20.02;81.28
61026;BME280;46911;32.650;-16.902;2023-04-30T08:43:35;101821.94;;;20.32;81.98
61026;BME280;46911;32.650;-16.902;2023-04-30T08:45:37;101803.56;;;20.26;81.90
61026;BME280;46911;32.650;-16.902;2023-04-30T08:47:42;101819.41;;;20.40;81.57
61026;BME280;46911;32.650;-16.902;2023-04-30T08:49:47;101825.41;;;20.54;80.66
61026;BME280;46911;32.650;-16.902;2023-04-30T08:51:48;101801.56;;;20.77;79.72
61026;BME280;46911;32.650;-16.902;2023-04-30T08:53:54;101803.91;;;21.10;78.47
61026;BME280;46911;32.650;-16.902;2023-04-30T08:56:00;101802.94;;;21.58;78.02
61026;BME280;46911;32.650;-16.902;2023-04-30T08:58:02;101800.91;;;22.06;77.21
61026;BME280;46911;32.650;-16.902;2023-04-30T09:00:06;101809.59;;;22.55;73.34
61026;BME280;46911;32.650;-16.902;2023-04-30T09:02:07;101800.34;;;22.66;72.89
61026;BME280;46911;32.650;-16.902;2023-04-30T09:04:12;101802.25;;;22.74;71.83
61026;BME280;46911;32.650;-16.902;2023-04-30T09:06:20;101792.31;;;23.09;69.17
61026;BME280;46911;32.650;-16.902;2023-04-30T09:08:43;101806.38;;;23.22;67.08
61026;BME280;46911;32.650;-16.902;2023-04-30T09:10:46;101808.84;;;23.85;65.51
61026;BME280;46911;32.650;-16.902;2023-04-30T09:13:06;101808.16;;;23.83;64.02
61026;BME280;46911;32.650;-16.902;2023-04-30T09:15:08;101813.22;;;24.45;63.38
61026;BME280;46911;32.650;-16.902;2023-04-30T09:17:22;101797.75;;;24.54;61.05
61026;BME280;46911;32.650;-16.902;2023-04-30T09:19:28;101789.34;;;25.05;59.66
61026;BME280;46911;32.650;-16.902;2023-04-30T09:21:33;101807.81;;;24.70;59.00
61026;BME280;46911;32.650;-16.902;2023-04-30T09:23:36;101793.34;;;24.69;59.39
61026;BME280;46911;32.650;-16.902;2023-04-30T09:25:58;101808.13;;;25.00;59.62
61026;BME280;46911;32.650;-16.902;2023-04-30T09:28:10;101806.66;;;24.64;58.96
61026;BME280;46911;32.650;-16.902;2023-04-30T09:30:30;101775.25;;;24.60;58.92
61026;BME280;46911;32.650;-16.902;2023-04-30T09:32:34;101763.53;;;25.24;58.04
61026;BME280;46911;32.650;-16.902;2023-04-30T09:34:35;101747.78;;;24.62;58.82
61026;BME280;46911;32.650;-16.902;2023-04-30T09:36:39;101765.31;;;25.00;58.77
61026;BME280;46911;32.650;-16.902;2023-04-30T09:38:54;101766.38;;;24.91;59.29
61026;BME280;46911;32.650;-16.902;2023-04-30T09:40:59;101776.50;;;25.22;58.78
61026;BME280;46911;32.650;-16.902;2023-04-30T09:43:05;101777.06;;;25.01;58.60
61026;BME280;46911;32.650;-16.902;2023-04-30T09:45:09;101770.88;;;25.23;57.82
61026;BME280;46911;32.650;-16.902;2023-04-30T09:47:18;101769.63;;;25.43;57.05
61026;BME280;46911;32.650;-16.902;2023-04-30T09:49:20;101771.84;;;25.47;56.17
61026;BME280;46911;32.650;-16.902;2023-04-30T09:51:21;101777.25;;;26.42;54.24
61026;BME280;46911;32.650;-16.902;2023-04-30T09:53:25;101771.56;;;26.05;54.09
61026;BME280;46911;32.650;-16.902;2023-04-30T09:55:26;101759.28;;;26.24;53.53
61026;BME280;46911;32.650;-16.902;2023-04-30T09:57:29;101746.34;;;26.79;51.66
61026;BME280;46911;32.650;-16.902;2023-04-30T09:59:36;101761.34;;;27.43;51.61
61026;BME280;46911;32.650;-16.902;2023-04-30T10:01:38;101759.16;;;27.68;49.34
61026;BME280;46911;32.650;-16.902;2023-04-30T10:03:42;101765.56;;;27.76;49.40
61026;BME280;46911;32.650;-16.902;2023-04-30T10:05:47;101756.38;;;28.70;47.56
61026;BME280;46911;32.650;-16.902;2023-04-30T10:07:51;101761.31;;;28.31;47.76
61026;BME280;46911;32.650;-16.902;2023-04-30T10:12:09;101773.09;;;27.22;50.54
61026;BME280;46911;32.650;-16.902;2023-04-30T10:14:16;101758.22;;;26.71;51.11
61026;BME280;46911;32.650;-16.902;2023-04-30T10:18:41;101753.22;;;26.14;53.30
61026;BME280;46911;32.650;-16.902;2023-04-30T10:20:47;101748.09;;;26.34;52.61
61026;BME280;46911;32.650;-16.902;2023-04-30T10:22:51;101759.84;;;27.11;51.07
61026;BME280;46911;32.650;-16.902;2023-04-30T10:24:52;101754.34;;;27.70;49.36
61026;BME280;46911;32.650;-16.902;2023-04-30T10:26:54;101746.31;;;27.69;49.50
61026;BME280;46911;32.650;-16.902;2023-04-30T10:28:59;101758.63;;;27.58;48.33
61026;BME280;46911;32.650;-16.902;2023-04-30T10:31:01;101751.63;;;27.40;49.60
61026;BME280;46911;32.650;-16.902;2023-04-30T10:34:05;101775.22;;;28.08;47.59
61026;BME280;46911;32.650;-16.902;2023-04-30T10:35:50;101759.88;;;27.77;47.60
61026;BME280;46911;32.650;-16.902;2023-04-30T10:40:09;101774.13;;;28.24;47.13
61026;BME280;46911;32.650;-16.902;2023-04-30T10:42:10;101756.59;;;28.47;46.01
61026;BME280;46911;32.650;-16.902;2023-04-30T10:44:21;101749.59;;;29.01;45.13
61026;BME280;46911;32.650;-16.902;2023-04-30T10:46:29;101756.13;;;28.43;46.10
61026;BME280;46911;32.650;-16.902;2023-04-30T10:48:33;101759.09;;;28.92;45.23
61026;BME280;46911;32.650;-16.902;2023-04-30T10:50:41;101750.22;;;29.31;45.34
61026;BME280;46911;32.650;-16.902;2023-04-30T10:52:47;101763.00;;;29.52;44.34
61026;BME280;46911;32.650;-16.902;2023-04-30T10:55:10;101747.19;;;29.19;46.30
61026;BME280;46911;32.650;-16.902;2023-04-30T10:57:15;101752.91;;;27.75;49.02
61026;BME280;46911;32.650;-16.902;2023-04-30T10:59:22;101769.31;;;27.53;49.75
61026;BME280;46911;32.650;-16.902;2023-04-30T11:01:30;101763.72;;;26.86;52.08